createdAt,value
2018-02-02T00:00:02.159Z,0.80
2018-02-02T00:02:28.492Z,0.90
2018-02-02T00:04:54.782Z,0.90
2018-02-02T00:07:21.073Z,0.90
2018-02-02T00:09:48.098Z,0.90
2018-02-02T00:12:14.434Z,0.90
2018-02-02T00:14:40.726Z,0.90
2018-02-02T00:17:07.042Z,0.80
2018-02-02T00:19:33.319Z,0.90
2018-02-02T00:21:59.619Z,0.90
2018-02-02T00:24:26.144Z,0.90
2018-02-02T00:26:52.461Z,0.90
2018-02-02T00:29:19.491Z,0.90
2018-02-02T00:31:46.566Z,1.00
2018-02-02T00:34:12.838Z,1.00
2018-02-02T00:36:39.142Z,1.00
2018-02-02T00:39:05.468Z,1.10
2018-02-02T00:41:31.766Z,1.10
2018-02-02T00:43:58.177Z,1.10
2018-02-02T00:46:25.218Z,1.00
2018-02-02T00:48:51.522Z,1.00
2018-02-02T00:51:24.122Z,0.90
2018-02-02T00:53:51.813Z,0.90
2018-02-02T00:56:18.897Z,0.90
2018-02-02T00:58:45.193Z,0.80
2018-02-02T01:01:12.119Z,0.90
2018-02-02T01:03:39.147Z,0.90
2018-02-02T01:06:06.700Z,1.10
2018-02-02T01:08:33.138Z,1.00
2018-02-02T01:10:59.760Z,1.10
2018-02-02T01:13:26.039Z,1.20
2018-02-02T01:15:53.104Z,1.30
2018-02-02T01:18:20.193Z,1.30
2018-02-02T01:20:46.522Z,1.30
2018-02-02T01:23:12.796Z,1.30
2018-02-02T01:25:39.842Z,1.40
2018-02-02T01:28:06.878Z,1.40
2018-02-02T01:30:33.917Z,1.40
2018-02-02T01:33:01.706Z,1.40
2018-02-02T01:35:28.749Z,1.30
2018-02-02T01:37:55.760Z,1.30
2018-02-02T01:40:22.048Z,1.20
2018-02-02T01:42:48.327Z,1.10
2018-02-02T01:45:14.662Z,1.10
2018-02-02T01:47:40.962Z,1.00
2018-02-02T01:50:07.267Z,1.00
2018-02-02T01:52:33.548Z,1.00
2018-02-02T01:54:59.871Z,0.90
2018-02-02T01:57:26.239Z,1.00
2018-02-02T01:59:52.563Z,1.00
2018-02-02T02:02:19.598Z,0.90
2018-02-02T02:04:45.867Z,0.90
2018-02-02T02:07:13.207Z,0.90
2018-02-02T02:09:40.227Z,1.00
2018-02-02T02:12:06.514Z,0.90
2018-02-02T02:14:32.819Z,1.00
2018-02-02T02:16:59.832Z,0.90
2018-02-02T02:19:26.146Z,0.90
2018-02-02T02:21:52.423Z,0.90
2018-02-02T02:24:19.442Z,0.80
2018-02-02T02:26:45.768Z,0.70
2018-02-02T02:29:12.055Z,0.70
2018-02-02T02:31:38.335Z,0.70
2018-02-02T02:34:05.023Z,0.80
2018-02-02T02:36:31.660Z,0.90
2018-02-02T02:38:58.306Z,0.90
2018-02-02T02:41:24.941Z,0.90
2018-02-02T02:43:53.613Z,0.90
2018-02-02T02:46:21.045Z,0.80
2018-02-02T02:48:52.555Z,0.90
2018-02-02T02:51:19.987Z,0.90
2018-02-02T02:53:46.522Z,0.80
2018-02-02T02:56:12.960Z,0.80
2018-02-02T02:58:39.594Z,0.80
2018-02-02T03:01:06.064Z,0.80
2018-02-02T03:03:32.664Z,0.90
2018-02-02T03:05:59.302Z,0.90
2018-02-02T03:08:25.951Z,0.90
2018-02-02T03:10:52.577Z,0.80
2018-02-02T03:13:19.122Z,0.60
2018-02-02T03:15:45.583Z,0.60
2018-02-02T03:18:12.005Z,0.70
2018-02-02T03:20:38.726Z,0.70
2018-02-02T03:23:06.388Z,0.80
2018-02-02T03:25:32.803Z,0.70
2018-02-02T03:28:00.484Z,0.70
2018-02-02T03:30:27.430Z,0.80
2018-02-02T03:32:54.547Z,0.70
2018-02-02T03:35:20.974Z,0.70
2018-02-02T03:37:47.650Z,0.70
2018-02-02T03:40:14.289Z,0.70
2018-02-02T03:42:40.828Z,0.70
2018-02-02T03:45:07.463Z,0.70
2018-02-02T03:47:34.058Z,0.60
2018-02-02T03:50:00.576Z,0.60
2018-02-02T03:52:27.170Z,0.60
2018-02-02T03:54:53.809Z,0.60
2018-02-02T03:57:20.451Z,0.60
2018-02-02T03:59:46.956Z,0.60
2018-02-02T04:02:14.542Z,0.60
2018-02-02T04:04:40.974Z,0.60
2018-02-02T04:07:07.614Z,0.60
2018-02-02T04:09:34.148Z,0.70
2018-02-02T04:12:01.320Z,0.60
2018-02-02T04:14:27.938Z,0.70
2018-02-02T04:16:54.356Z,0.70
2018-02-02T04:19:21.008Z,0.70
2018-02-02T04:21:48.674Z,0.70
2018-02-02T04:24:15.307Z,0.70
2018-02-02T04:26:41.946Z,0.70
2018-02-02T04:29:08.583Z,0.80
2018-02-02T04:31:35.017Z,0.80
2018-02-02T04:34:01.657Z,0.90
2018-02-02T04:36:28.293Z,0.80
2018-02-02T04:38:55.032Z,0.80
2018-02-02T04:41:21.447Z,0.80
2018-02-02T04:43:49.027Z,0.80
2018-02-02T04:46:15.662Z,0.80
2018-02-02T04:48:42.608Z,0.80
2018-02-02T04:51:09.896Z,0.80
2018-02-02T04:53:36.515Z,1.00
2018-02-02T04:56:03.153Z,1.10
2018-02-02T04:58:30.159Z,1.00
2018-02-02T05:00:57.555Z,0.80
2018-02-02T05:03:24.192Z,0.80
2018-02-02T05:05:50.611Z,0.80
2018-02-02T05:08:18.579Z,0.90
2018-02-02T05:10:46.465Z,0.80
2018-02-02T05:13:12.879Z,0.90
2018-02-02T05:15:39.536Z,0.90
2018-02-02T05:18:06.615Z,0.90
2018-02-02T05:20:33.763Z,1.10
2018-02-02T05:23:00.262Z,1.00
2018-02-02T05:25:26.683Z,1.00
2018-02-02T05:27:54.115Z,1.10
2018-02-02T05:30:21.513Z,1.20
2018-02-02T05:32:48.150Z,1.20
2018-02-02T05:35:14.572Z,1.10
2018-02-02T05:37:40.975Z,1.00
2018-02-02T05:40:08.156Z,1.10
2018-02-02T05:42:34.805Z,1.00
2018-02-02T05:45:01.444Z,1.10
2018-02-02T05:47:28.082Z,1.30
2018-02-02T05:49:55.159Z,1.20
2018-02-02T05:52:21.575Z,1.30
2018-02-02T05:54:49.003Z,1.30
2018-02-02T05:57:15.655Z,1.40
2018-02-02T05:59:43.318Z,1.50
2018-02-02T06:02:10.495Z,1.50
2018-02-02T06:04:37.106Z,1.50
2018-02-02T06:07:03.749Z,1.60
2018-02-02T06:09:30.301Z,1.50
2018-02-02T06:11:56.737Z,1.40
2018-02-02T06:14:23.355Z,1.40
2018-02-02T06:16:49.996Z,1.30
2018-02-02T06:19:29.023Z,1.30
2018-02-02T06:21:55.558Z,1.10
2018-02-02T06:24:22.978Z,1.10
2018-02-02T06:26:49.656Z,1.00
2018-02-02T06:29:17.110Z,1.10
2018-02-02T06:31:43.749Z,1.00
2018-02-02T06:34:10.388Z,1.00
2018-02-02T06:36:37.137Z,1.00
2018-02-02T06:39:03.592Z,1.00
2018-02-02T06:41:31.222Z,1.00
2018-02-02T06:43:57.663Z,0.90
2018-02-02T06:46:24.293Z,0.90
2018-02-02T06:48:50.721Z,1.00
2018-02-02T06:51:17.393Z,1.00
2018-02-02T06:53:44.163Z,1.00
2018-02-02T06:56:12.585Z,0.80
2018-02-02T06:58:39.578Z,0.80
2018-02-02T07:01:07.914Z,0.70
2018-02-02T07:03:34.546Z,0.70
2018-02-02T07:06:01.198Z,0.60
2018-02-02T07:08:27.822Z,0.50
2018-02-02T07:10:55.263Z,0.50
2018-02-02T07:13:21.918Z,0.40
2018-02-02T07:15:48.556Z,0.40
2018-02-02T07:18:15.808Z,0.40
2018-02-02T07:20:43.256Z,0.40
2018-02-02T07:23:09.701Z,0.50
2018-02-02T07:25:36.088Z,0.60
2018-02-02T07:28:03.278Z,0.60
2018-02-02T07:30:29.699Z,0.60
2018-02-02T07:32:56.353Z,0.70
2018-02-02T07:35:22.887Z,0.70
2018-02-02T07:37:49.423Z,0.90
2018-02-02T07:40:17.086Z,1.10
2018-02-02T07:42:43.723Z,1.10
2018-02-02T07:45:10.361Z,1.20
2018-02-02T07:47:37.921Z,1.30
2018-02-02T07:50:04.559Z,1.30
2018-02-02T07:52:31.197Z,1.30
2018-02-02T07:54:59.023Z,1.40
2018-02-02T07:57:26.419Z,1.60
2018-02-02T07:59:53.571Z,1.50
2018-02-02T08:02:20.207Z,1.50
2018-02-02T08:04:46.845Z,1.50
2018-02-02T08:07:13.482Z,1.50
2018-02-02T08:09:39.918Z,1.40
2018-02-02T08:12:07.031Z,1.40
2018-02-02T08:14:33.703Z,1.40
2018-02-02T08:17:00.133Z,1.50
2018-02-02T08:19:27.197Z,1.50
2018-02-02T08:21:54.167Z,1.50
2018-02-02T08:24:20.777Z,1.60
2018-02-02T08:26:47.412Z,1.80
2018-02-02T08:29:13.840Z,1.90
2018-02-02T08:31:41.284Z,1.90
2018-02-02T08:34:07.948Z,1.90
2018-02-02T08:36:34.383Z,2.00
2018-02-02T08:39:00.812Z,2.10
2018-02-02T08:41:27.237Z,2.20
2018-02-02T08:43:53.768Z,2.20
2018-02-02T08:46:20.175Z,2.30
2018-02-02T08:48:46.854Z,2.40
2018-02-02T08:51:13.843Z,2.40
2018-02-02T08:53:40.999Z,2.40
2018-02-02T08:56:08.406Z,2.50
2018-02-02T08:58:35.854Z,2.50
2018-02-02T09:01:08.836Z,2.50
2018-02-02T09:03:36.243Z,2.50
2018-02-02T09:06:02.677Z,2.50
2018-02-02T09:08:29.849Z,2.70
2018-02-02T09:10:56.525Z,2.70
2018-02-02T09:13:22.943Z,2.80
2018-02-02T09:15:49.596Z,2.90
2018-02-02T09:18:16.234Z,3.00
2018-02-02T09:20:42.872Z,3.10
2018-02-02T09:23:09.387Z,3.00
2018-02-02T09:25:36.865Z,2.90
2018-02-02T09:28:03.399Z,2.90
2018-02-02T09:30:30.038Z,3.10
2018-02-02T09:32:57.129Z,3.20
2018-02-02T09:35:24.334Z,3.10
2018-02-02T09:37:50.962Z,3.10
2018-02-02T09:40:18.136Z,3.20
2018-02-02T09:42:44.556Z,3.30
2018-02-02T09:45:11.185Z,3.20
2018-02-02T09:47:38.847Z,3.20
2018-02-02T09:50:05.485Z,3.30
2018-02-02T09:52:32.943Z,3.10
2018-02-02T09:54:59.359Z,2.90
2018-02-02T09:57:26.019Z,2.70
2018-02-02T09:59:52.451Z,2.90
2018-02-02T10:02:18.988Z,2.90
2018-02-02T10:04:45.495Z,3.10
2018-02-02T10:07:13.062Z,3.20
2018-02-02T10:09:39.475Z,3.30
2018-02-02T10:12:07.078Z,3.30
2018-02-02T10:14:33.712Z,3.20
2018-02-02T10:17:01.308Z,3.30
2018-02-02T10:19:27.918Z,3.30
2018-02-02T10:21:55.290Z,3.00
2018-02-02T10:24:21.903Z,3.20
2018-02-02T10:26:48.951Z,3.10
2018-02-02T10:29:16.612Z,3.30
2018-02-02T10:31:43.049Z,3.30
2018-02-02T10:34:09.685Z,3.20
2018-02-02T10:36:36.117Z,3.30
2018-02-02T10:39:02.756Z,3.20
2018-02-02T10:41:29.823Z,3.10
2018-02-02T10:43:56.219Z,3.10
2018-02-02T10:46:22.872Z,3.10
2018-02-02T10:48:49.292Z,2.90
2018-02-02T10:51:15.847Z,2.90
2018-02-02T10:53:42.479Z,2.90
2018-02-02T10:56:09.137Z,3.10
2018-02-02T10:58:35.572Z,3.10
2018-02-02T11:01:08.942Z,3.00
2018-02-02T11:06:32.433Z,3.10
2018-02-02T11:08:59.172Z,2.90
2018-02-02T11:11:25.709Z,2.80
2018-02-02T11:13:53.127Z,2.70
2018-02-02T11:16:20.723Z,2.90
2018-02-02T11:18:47.328Z,2.90
2018-02-02T11:21:13.998Z,3.20
2018-02-02T11:23:40.435Z,3.30
2018-02-02T11:26:06.835Z,3.40
2018-02-02T11:28:33.503Z,3.40
2018-02-02T11:30:59.919Z,3.60
2018-02-02T11:33:26.339Z,3.40
2018-02-02T11:35:53.063Z,3.40
2018-02-02T11:38:20.464Z,3.50
2018-02-02T11:40:47.204Z,3.50
2018-02-02T11:43:13.848Z,3.60
2018-02-02T11:45:40.282Z,3.40
2018-02-02T11:48:06.795Z,3.40
2018-02-02T11:50:33.199Z,3.50
2018-02-02T11:53:00.505Z,3.60
2018-02-02T11:55:28.166Z,3.60
2018-02-02T11:57:54.804Z,3.50
2018-02-02T12:00:21.443Z,3.50
2018-02-02T12:02:48.439Z,3.10
2018-02-02T12:05:15.623Z,3.20
2018-02-02T12:07:42.176Z,3.20
2018-02-02T12:10:08.814Z,3.40
2018-02-02T12:12:35.245Z,3.60
2018-02-02T12:15:02.304Z,3.90
2018-02-02T12:17:28.755Z,4.10
2018-02-02T12:19:55.763Z,3.90
2018-02-02T12:22:23.230Z,3.90
2018-02-02T12:24:54.886Z,4.10
2018-02-02T12:30:38.032Z,4.50
2018-02-02T12:33:24.487Z,4.50
2018-02-02T12:35:51.667Z,4.60
2018-02-02T12:38:18.100Z,4.50
2018-02-02T12:40:44.532Z,4.60
2018-02-02T12:43:11.190Z,4.70
2018-02-02T12:45:37.827Z,5.10
2018-02-02T12:48:04.272Z,5.20
2018-02-02T12:50:35.514Z,5.00
2018-02-02T12:53:02.661Z,5.10
2018-02-02T12:55:29.294Z,5.30
2018-02-02T12:57:55.932Z,5.70
2018-02-02T13:00:22.569Z,6.20
2018-02-02T13:02:48.987Z,6.80
2018-02-02T13:05:15.407Z,7.10
2018-02-02T13:07:41.831Z,7.30
2018-02-02T13:10:08.507Z,7.10
2018-02-02T13:12:35.568Z,7.20
2018-02-02T13:15:02.811Z,7.30
2018-02-02T13:17:29.207Z,7.20
2018-02-02T13:19:55.776Z,6.60
2018-02-02T13:22:22.907Z,5.70
2018-02-02T13:24:49.569Z,5.40
2018-02-02T13:27:16.406Z,5.60
2018-02-02T13:29:42.850Z,5.60
2018-02-02T13:32:09.263Z,5.50
2018-02-02T13:34:36.449Z,6.60
2018-02-02T13:37:03.776Z,6.80
2018-02-02T13:39:30.190Z,6.70
2018-02-02T13:41:58.190Z,6.70
2018-02-02T13:44:24.627Z,6.30
2018-02-02T13:46:52.257Z,6.40
2018-02-02T13:49:18.671Z,6.20
2018-02-02T13:51:45.243Z,6.20
2018-02-02T13:54:11.753Z,6.20
2018-02-02T13:56:38.744Z,6.00
2018-02-02T13:59:05.361Z,6.40
2018-02-02T14:01:32.001Z,6.80
2018-02-02T14:03:58.639Z,6.80
2018-02-02T14:06:25.094Z,6.00
2018-02-02T14:08:51.506Z,5.20
2018-02-02T14:11:17.939Z,5.00
2018-02-02T14:13:44.983Z,4.90
2018-02-02T14:16:11.494Z,4.90
2018-02-02T14:18:38.158Z,5.40
2018-02-02T14:21:04.583Z,5.50
2018-02-02T14:23:31.228Z,5.20
2018-02-02T14:25:57.867Z,4.90
2018-02-02T14:28:24.504Z,5.10
2018-02-02T14:30:52.166Z,5.10
2018-02-02T14:33:18.607Z,5.40
2018-02-02T14:35:45.039Z,5.80
2018-02-02T14:38:11.455Z,6.50
2018-02-02T14:40:38.103Z,7.00
2018-02-02T14:43:04.741Z,7.30
2018-02-02T14:45:32.403Z,7.40
2018-02-02T14:47:59.057Z,7.10
2018-02-02T14:50:25.691Z,7.20
2018-02-02T14:52:52.778Z,7.60
2018-02-02T14:55:19.378Z,7.70
2018-02-02T14:57:46.017Z,7.60
2018-02-02T15:00:12.652Z,7.40
2018-02-02T15:02:39.189Z,7.30
2018-02-02T15:05:05.720Z,7.50
2018-02-02T15:07:32.781Z,7.40
2018-02-02T15:10:00.198Z,7.50
2018-02-02T15:12:26.871Z,7.10
2018-02-02T15:14:53.810Z,6.80
2018-02-02T15:17:20.453Z,6.60
2018-02-02T15:19:47.087Z,6.40
2018-02-02T15:22:14.056Z,5.90
2018-02-02T15:24:40.511Z,5.70
2018-02-02T15:27:07.921Z,5.40
2018-02-02T15:29:34.463Z,5.40
2018-02-02T15:32:00.928Z,5.80
2018-02-02T15:34:27.421Z,6.20
2018-02-02T15:36:53.856Z,6.10
2018-02-02T15:39:20.498Z,5.90
2018-02-02T15:41:48.618Z,5.80
2018-02-02T15:44:16.027Z,5.80
2018-02-02T15:46:42.665Z,5.80
2018-02-02T15:49:10.031Z,5.80
2018-02-02T15:51:36.521Z,5.20
2018-02-02T15:54:02.935Z,4.70
2018-02-02T15:56:30.243Z,3.90
2018-02-02T15:58:56.752Z,3.90
2018-02-02T16:01:23.310Z,3.60
2018-02-02T16:03:50.393Z,3.40
2018-02-02T16:06:16.831Z,3.20
2018-02-02T16:08:43.431Z,3.00
2018-02-02T16:11:09.872Z,2.80
2018-02-02T16:13:36.400Z,2.70
2018-02-02T16:16:02.915Z,2.60
2018-02-02T16:18:29.446Z,2.50
2018-02-02T16:20:55.868Z,2.20
2018-02-02T16:23:22.298Z,2.20
2018-02-02T16:25:48.870Z,2.10
2018-02-02T16:28:15.508Z,2.20
2018-02-02T16:30:42.042Z,2.20
2018-02-02T16:33:08.681Z,2.10
2018-02-02T16:35:35.134Z,2.00
2018-02-02T16:38:01.548Z,2.00
2018-02-02T16:40:28.186Z,1.90
2018-02-02T16:42:54.822Z,1.70
2018-02-02T16:45:21.358Z,1.60
2018-02-02T16:47:47.775Z,1.50
2018-02-02T16:50:14.431Z,1.40
2018-02-02T16:52:41.069Z,1.40
2018-02-02T16:55:07.709Z,1.40
2018-02-02T16:57:34.152Z,1.40
2018-02-02T17:00:00.591Z,1.30
2018-02-02T17:02:27.210Z,1.30
2018-02-02T17:04:53.765Z,1.30
2018-02-02T17:07:20.403Z,1.30
2018-02-02T17:09:48.557Z,1.10
2018-02-02T17:12:16.012Z,1.10
2018-02-02T17:14:42.652Z,1.00
2018-02-02T17:17:09.290Z,1.00
2018-02-02T17:19:35.731Z,0.90
2018-02-02T17:22:02.360Z,0.70
2018-02-02T17:24:29.039Z,0.50
2018-02-02T17:26:56.454Z,0.50
2018-02-02T17:29:23.094Z,0.40
2018-02-02T17:31:49.507Z,0.50
2018-02-02T17:34:17.188Z,0.50
2018-02-02T17:36:43.626Z,0.50
2018-02-02T17:39:10.055Z,0.50
2018-02-02T17:41:36.563Z,0.40
2018-02-02T17:44:03.030Z,0.40
2018-02-02T17:46:29.442Z,0.40
2018-02-02T17:48:56.094Z,0.40
2018-02-02T17:51:23.758Z,0.50
2018-02-02T17:53:50.393Z,0.60
2018-02-02T17:56:17.031Z,0.60
2018-02-02T17:58:43.455Z,0.70
2018-02-02T18:01:20.956Z,0.80
2018-02-02T18:03:47.446Z,0.90
2018-02-02T18:06:15.526Z,1.00
2018-02-02T18:08:42.202Z,1.00
2018-02-02T18:11:09.343Z,1.00
2018-02-02T18:13:35.779Z,1.10
2018-02-02T18:16:02.195Z,1.20
2018-02-02T18:18:28.726Z,1.30
2018-02-02T18:20:55.126Z,1.30
2018-02-02T18:23:22.439Z,1.20
2018-02-02T18:25:48.974Z,1.20
2018-02-02T18:28:15.716Z,1.20
2018-02-02T18:30:43.040Z,1.20
2018-02-02T18:33:09.447Z,1.30
2018-02-02T18:35:36.628Z,1.10
2018-02-02T18:38:03.188Z,1.10
2018-02-02T18:40:29.825Z,1.20
2018-02-02T18:42:56.253Z,1.20
2018-02-02T18:45:22.795Z,1.20
2018-02-02T18:47:49.309Z,1.20
2018-02-02T18:50:15.970Z,1.30
2018-02-02T18:52:42.486Z,1.30
2018-02-02T18:55:12.083Z,1.20
2018-02-02T18:57:51.041Z,1.30
2018-02-02T19:00:22.709Z,1.40
2018-02-02T19:02:52.194Z,1.40
2018-02-02T19:05:22.274Z,1.40
2018-02-02T19:07:51.900Z,1.60
2018-02-02T19:10:18.321Z,1.60
2018-02-02T19:15:26.207Z,1.50
2018-02-02T19:17:52.872Z,1.50
2018-02-02T19:20:21.112Z,1.50
2018-02-02T19:22:50.176Z,1.50
2018-02-02T19:25:27.767Z,1.50
2018-02-02T19:27:58.335Z,1.60
2018-02-02T19:30:28.271Z,1.50
2018-02-02T19:35:34.595Z,1.50
2018-02-02T19:38:12.379Z,1.40
2018-02-02T19:40:39.544Z,1.50
2018-02-02T19:43:11.283Z,1.40
2018-02-02T19:45:46.729Z,1.60
2018-02-02T19:48:13.513Z,1.50
2018-02-02T19:50:41.423Z,1.50
2018-02-02T19:53:14.745Z,1.50
2018-02-02T19:55:47.666Z,1.50
2018-02-02T19:58:19.844Z,1.60
2018-02-02T20:00:46.298Z,1.50
2018-02-02T20:03:14.749Z,1.60
2018-02-02T20:08:15.367Z,1.60
2018-02-02T20:10:48.624Z,1.60
2018-02-02T20:13:16.758Z,1.60
2018-02-02T20:15:44.253Z,1.60
2018-02-02T20:18:11.633Z,1.60
2018-02-02T20:20:38.520Z,1.60
2018-02-02T20:23:05.162Z,1.60
2018-02-02T20:25:34.187Z,1.70
2018-02-02T20:28:00.871Z,1.70
2018-02-02T20:30:32.874Z,1.70
2018-02-02T20:32:59.414Z,1.80
2018-02-02T20:35:30.819Z,1.80
2018-02-02T20:40:28.935Z,1.60
2018-02-02T20:42:56.147Z,1.70
2018-02-02T20:45:26.632Z,1.80
2018-02-02T20:47:54.342Z,1.80
2018-02-02T20:50:27.704Z,1.80
2018-02-02T20:52:54.212Z,1.80
2018-02-02T20:55:20.859Z,1.80
2018-02-02T20:57:53.396Z,1.60
2018-02-02T21:00:30.846Z,1.60
2018-02-02T21:02:58.628Z,1.60
2018-02-02T21:05:25.127Z,1.60
2018-02-02T21:07:55.150Z,1.60
2018-02-02T21:10:25.567Z,1.60
2018-02-02T21:13:01.620Z,1.50
2018-02-02T21:15:35.482Z,1.60
2018-02-02T21:18:02.202Z,1.60
2018-02-02T21:20:30.755Z,1.60
2018-02-02T21:23:00.196Z,1.60
2018-02-02T21:25:26.952Z,1.60
2018-02-02T21:27:53.964Z,1.60
2018-02-02T21:30:24.494Z,1.50
2018-02-02T21:32:51.092Z,1.70
2018-02-02T21:35:20.535Z,1.70
2018-02-02T21:37:52.349Z,1.80
2018-02-02T21:40:19.268Z,1.90
2018-02-02T21:42:47.537Z,1.70
2018-02-02T21:45:18.226Z,1.70
2018-02-02T21:47:45.407Z,1.70
2018-02-02T21:50:14.830Z,1.70
2018-02-02T21:52:42.670Z,1.70
2018-02-02T21:55:10.367Z,1.80
2018-02-02T21:57:36.815Z,1.70
2018-02-02T22:00:03.462Z,1.70
2018-02-02T22:02:32.942Z,1.60
2018-02-02T22:04:59.415Z,1.60
2018-02-02T22:07:25.926Z,1.60
2018-02-02T22:09:53.343Z,1.60
2018-02-02T22:12:23.442Z,1.60
2018-02-02T22:14:55.942Z,1.60
2018-02-02T22:17:22.587Z,1.50
2018-02-02T22:19:52.642Z,1.50
2018-02-02T22:22:19.444Z,1.40
2018-02-02T22:24:45.843Z,1.50
2018-02-02T22:29:54.403Z,1.40
2018-02-02T22:32:22.096Z,1.40
2018-02-02T22:34:50.752Z,1.40
2018-02-02T22:37:18.293Z,1.50
2018-02-02T22:39:46.254Z,1.40
2018-02-02T22:42:12.865Z,1.50
2018-02-02T22:44:42.507Z,1.40
2018-02-02T22:47:08.940Z,1.40
2018-02-02T22:49:38.617Z,1.40
2018-02-02T22:52:08.848Z,1.30
2018-02-02T22:54:36.437Z,1.40
2018-02-02T22:57:08.160Z,1.50
2018-02-02T22:59:34.611Z,1.40
2018-02-02T23:02:04.186Z,1.30
2018-02-02T23:04:30.827Z,1.30
2018-02-02T23:06:58.311Z,1.40
2018-02-02T23:11:57.372Z,1.50
2018-02-02T23:17:04.608Z,1.40
2018-02-02T23:19:34.126Z,1.40
2018-02-02T23:22:02.551Z,1.50
2018-02-02T23:24:30.091Z,1.50
2018-02-02T23:26:57.915Z,1.60
2018-02-02T23:29:25.239Z,1.50
2018-02-02T23:31:51.951Z,1.50
2018-02-02T23:34:18.585Z,1.50
2018-02-02T23:36:46.330Z,1.60
2018-02-02T23:39:12.740Z,1.60
2018-02-02T23:41:39.886Z,1.80
2018-02-02T23:44:07.516Z,1.90
2018-02-02T23:46:34.135Z,1.90
2018-02-02T23:49:00.560Z,2.10
2018-02-02T23:51:28.229Z,2.20
2018-02-02T23:53:54.663Z,2.30
2018-02-02T23:56:21.304Z,2.10
2018-02-02T23:58:48.731Z,2.10
